sensor_id;sensor_type;location;lat;lon;timestamp;pressure;altitude;pressure_sealevel;temperature;humidity
77090;BME280;66028;53.558;9.950;2024-02-14T00:01:41;101343.25;;;5.40;79.34
77090;BME280;66028;53.558;9.950;2024-02-14T00:04:06;101334.53;;;5.38;79.31
77090;BME280;66028;53.558;9.950;2024-02-14T00:06:35;101335.28;;;5.32;79.68
77090;BME280;66028;53.558;9.950;2024-02-14T00:09:01;101337.75;;;5.27;79.84
77090;BME280;66028;53.558;9.950;2024-02-14T00:11:27;101333.19;;;5.28;79.85
77090;BME280;66028;53.558;9.950;2024-02-14T00:13:52;101330.56;;;5.34;79.15
77090;BME280;66028;53.558;9.950;2024-02-14T00:16:17;101332.88;;;5.37;79.04
77090;BME280;66028;53.558;9.950;2024-02-14T00:18:43;101333.25;;;5.34;78.67
77090;BME280;66028;53.558;9.950;2024-02-14T00:21:08;101330.84;;;5.39;79.05
77090;BME280;66028;53.558;9.950;2024-02-14T00:23:33;101334.47;;;5.32;79.30
77090;BME280;66028;53.558;9.950;2024-02-14T00:25:58;101329.34;;;5.37;79.57
77090;BME280;66028;53.558;9.950;2024-02-14T00:28:24;101337.78;;;5.34;79.47
77090;BME280;66028;53.558;9.950;2024-02-14T00:30:52;101332.03;;;5.37;78.93
77090;BME280;66028;53.558;9.950;2024-02-14T00:33:17;101324.19;;;5.35;78.86
77090;BME280;66028;53.558;9.950;2024-02-14T00:35:43;101333.16;;;5.42;78.97
77090;BME280;66028;53.558;9.950;2024-02-14T00:38:09;101323.81;;;5.38;79.03
77090;BME280;66028;53.558;9.950;2024-02-14T00:40:35;101324.81;;;5.37;78.54
77090;BME280;66028;53.558;9.950;2024-02-14T00:43:01;101313.69;;;5.40;78.79
77090;BME280;66028;53.558;9.950;2024-02-14T00:45:27;101303.97;;;5.39;78.58
77090;BME280;66028;53.558;9.950;2024-02-14T00:47:52;101305.84;;;5.39;78.69
77090;BME280;66028;53.558;9.950;2024-02-14T00:50:17;101310.19;;;5.40;78.67
77090;BME280;66028;53.558;9.950;2024-02-14T00:52:43;101315.56;;;5.40;77.93
77090;BME280;66028;53.558;9.950;2024-02-14T00:55:08;101317.25;;;5.48;78.40
77090;BME280;66028;53.558;9.950;2024-02-14T00:57:33;101312.91;;;5.47;78.12
77090;BME280;66028;53.558;9.950;2024-02-14T00:59:58;101311.22;;;5.39;78.68
77090;BME280;66028;53.558;9.950;2024-02-14T01:02:24;101308.75;;;5.44;78.43
77090;BME280;66028;53.558;9.950;2024-02-14T01:04:51;101313.38;;;5.50;78.94
77090;BME280;66028;53.558;9.950;2024-02-14T01:07:16;101307.16;;;5.50;78.80
77090;BME280;66028;53.558;9.950;2024-02-14T01:09:42;101308.25;;;5.55;78.73
77090;BME280;66028;53.558;9.950;2024-02-14T01:12:07;101309.47;;;5.53;79.36
77090;BME280;66028;53.558;9.950;2024-02-14T01:14:32;101308.38;;;5.47;79.64
77090;BME280;66028;53.558;9.950;2024-02-14T01:16:57;101300.91;;;5.42;79.68
77090;BME280;66028;53.558;9.950;2024-02-14T01:19:23;101300.66;;;5.37;80.12
77090;BME280;66028;53.558;9.950;2024-02-14T01:21:53;101302.88;;;5.34;81.25
77090;BME280;66028;53.558;9.950;2024-02-14T01:24:19;101303.72;;;5.34;81.97
77090;BME280;66028;53.558;9.950;2024-02-14T01:26:44;101295.84;;;5.33;81.97
77090;BME280;66028;53.558;9.950;2024-02-14T01:29:09;101295.84;;;5.33;83.07
77090;BME280;66028;53.558;9.950;2024-02-14T01:31:34;101294.00;;;5.12;83.70
77090;BME280;66028;53.558;9.950;2024-02-14T01:34:00;101283.09;;;5.14;85.18
77090;BME280;66028;53.558;9.950;2024-02-14T01:36:30;101286.91;;;5.04;86.84
77090;BME280;66028;53.558;9.950;2024-02-14T01:38:55;101279.63;;;4.98;87.80
77090;BME280;66028;53.558;9.950;2024-02-14T01:41:21;101285.16;;;4.97;88.07
77090;BME280;66028;53.558;9.950;2024-02-14T01:43:49;101276.88;;;4.92;88.42
77090;BME280;66028;53.558;9.950;2024-02-14T01:46:15;101275.47;;;4.96;88.96
77090;BME280;66028;53.558;9.950;2024-02-14T01:48:41;101276.22;;;4.90;88.42
77090;BME280;66028;53.558;9.950;2024-02-14T01:51:08;101271.69;;;4.90;88.68
77090;BME280;66028;53.558;9.950;2024-02-14T01:53:35;101268.00;;;4.91;89.53
77090;BME280;66028;53.558;9.950;2024-02-14T01:56:01;101267.72;;;4.86;90.45
77090;BME280;66028;53.558;9.950;2024-02-14T01:58:28;101272.72;;;4.89;90.52
77090;BME280;66028;53.558;9.950;2024-02-14T02:00:54;101260.59;;;4.93;90.45
77090;BME280;66028;53.558;9.950;2024-02-14T02:03:25;101260.50;;;4.87;91.20
77090;BME280;66028;53.558;9.950;2024-02-14T02:05:52;101254.78;;;4.90;91.21
77090;BME280;66028;53.558;9.950;2024-02-14T02:08:17;101258.00;;;4.85;91.66
77090;BME280;66028;53.558;9.950;2024-02-14T02:10:42;101254.06;;;4.81;92.78
77090;BME280;66028;53.558;9.950;2024-02-14T02:13:08;101245.00;;;4.82;92.54
77090;BME280;66028;53.558;9.950;2024-02-14T02:15:34;101240.00;;;4.79;92.74
77090;BME280;66028;53.558;9.950;2024-02-14T02:18:00;101238.03;;;4.88;92.83
77090;BME280;66028;53.558;9.950;2024-02-14T02:20:25;101240.47;;;4.83;93.05
77090;BME280;66028;53.558;9.950;2024-02-14T02:22:53;101238.34;;;4.78;93.48
77090;BME280;66028;53.558;9.950;2024-02-14T02:25:18;101237.69;;;4.76;93.88
77090;BME280;66028;53.558;9.950;2024-02-14T02:27:48;101234.56;;;4.72;93.94
77090;BME280;66028;53.558;9.950;2024-02-14T02:30:13;101218.47;;;4.72;93.95
77090;BME280;66028;53.558;9.950;2024-02-14T02:32:39;101222.56;;;4.68;94.24
77090;BME280;66028;53.558;9.950;2024-02-14T02:35:04;101213.03;;;4.66;94.44
77090;BME280;66028;53.558;9.950;2024-02-14T02:37:30;101217.94;;;4.62;94.39
77090;BME280;66028;53.558;9.950;2024-02-14T02:39:56;101210.91;;;4.61;95.12
77090;BME280;66028;53.558;9.950;2024-02-14T02:42:22;101210.09;;;4.61;94.90
77090;BME280;66028;53.558;9.950;2024-02-14T02:44:49;101208.41;;;4.60;94.83
77090;BME280;66028;53.558;9.950;2024-02-14T02:47:14;101197.44;;;4.55;95.11
77090;BME280;66028;53.558;9.950;2024-02-14T02:49:42;101186.72;;;4.55;95.07
77090;BME280;66028;53.558;9.950;2024-02-14T02:52:10;101192.84;;;4.49;95.01
77090;BME280;66028;53.558;9.950;2024-02-14T02:54:35;101189.72;;;4.45;95.16
77090;BME280;66028;53.558;9.950;2024-02-14T02:57:00;101193.03;;;4.47;95.50
77090;BME280;66028;53.558;9.950;2024-02-14T02:59:28;101194.69;;;4.48;95.39
77090;BME280;66028;53.558;9.950;2024-02-14T03:01:54;101181.88;;;4.44;95.03
77090;BME280;66028;53.558;9.950;2024-02-14T03:04:20;101192.50;;;4.37;95.42
77090;BME280;66028;53.558;9.950;2024-02-14T03:06:45;101188.63;;;4.40;95.88
77090;BME280;66028;53.558;9.950;2024-02-14T03:09:11;101191.75;;;4.43;95.77
77090;BME280;66028;53.558;9.950;2024-02-14T03:11:37;101187.72;;;4.32;95.76
77090;BME280;66028;53.558;9.950;2024-02-14T03:14:03;101187.97;;;4.38;96.10
77090;BME280;66028;53.558;9.950;2024-02-14T03:16:29;101185.69;;;4.34;96.54
77090;BME280;66028;53.558;9.950;2024-02-14T03:18:55;101178.25;;;4.37;96.47
77090;BME280;66028;53.558;9.950;2024-02-14T03:21:20;101171.63;;;4.32;96.43
77090;BME280;66028;53.558;9.950;2024-02-14T03:23:45;101182.72;;;4.29;96.06
77090;BME280;66028;53.558;9.950;2024-02-14T03:26:11;101176.53;;;4.29;96.22
77090;BME280;66028;53.558;9.950;2024-02-14T03:28:36;101170.53;;;4.27;96.34
77090;BME280;66028;53.558;9.950;2024-02-14T03:31:01;101161.00;;;4.24;96.67
77090;BME280;66028;53.558;9.950;2024-02-14T03:33:26;101160.81;;;4.26;96.87
77090;BME280;66028;53.558;9.950;2024-02-14T03:35:54;101157.97;;;4.27;96.95
77090;BME280;66028;53.558;9.950;2024-02-14T03:38:26;101148.91;;;4.28;97.53
77090;BME280;66028;53.558;9.950;2024-02-14T03:40:51;101149.91;;;4.27;97.56
77090;BME280;66028;53.558;9.950;2024-02-14T03:43:17;101140.41;;;4.25;97.53
77090;BME280;66028;53.558;9.950;2024-02-14T03:45:42;101144.75;;;4.26;97.54
77090;BME280;66028;53.558;9.950;2024-02-14T03:48:07;101147.41;;;4.26;97.44
77090;BME280;66028;53.558;9.950;2024-02-14T03:50:35;101150.56;;;4.29;97.39
77090;BME280;66028;53.558;9.950;2024-02-14T03:53:00;101148.91;;;4.28;97.56
77090;BME280;66028;53.558;9.950;2024-02-14T03:55:25;101141.50;;;4.30;97.56
77090;BME280;66028;53.558;9.950;2024-02-14T03:57:50;101133.28;;;4.32;97.58
77090;BME280;66028;53.558;9.950;2024-02-14T04:00:16;101130.13;;;4.28;97.05
77090;BME280;66028;53.558;9.950;2024-02-14T04:02:41;101142.53;;;4.29;97.75
77090;BME280;66028;53.558;9.950;2024-02-14T04:05:07;101126.06;;;4.32;97.76
77090;BME280;66028;53.558;9.950;2024-02-14T04:07:33;101133.84;;;4.27;97.53
77090;BME280;66028;53.558;9.950;2024-02-14T04:09:59;101128.47;;;4.27;98.13
77090;BME280;66028;53.558;9.950;2024-02-14T04:12:25;101137.63;;;4.33;98.06
77090;BME280;66028;53.558;9.950;2024-02-14T04:14:50;101138.63;;;4.32;98.28
77090;BME280;66028;53.558;9.950;2024-02-14T04:17:15;101133.09;;;4.33;98.30
77090;BME280;66028;53.558;9.950;2024-02-14T04:19:41;101129.31;;;4.28;98.29
77090;BME280;66028;53.558;9.950;2024-02-14T04:22:06;101131.81;;;4.29;98.63
77090;BME280;66028;53.558;9.950;2024-02-14T04:24:33;101123.75;;;4.29;98.43
77090;BME280;66028;53.558;9.950;2024-02-14T04:26:59;101119.41;;;4.28;98.75
77090;BME280;66028;53.558;9.950;2024-02-14T04:29:25;101119.03;;;4.31;98.50
77090;BME280;66028;53.558;9.950;2024-02-14T04:31:51;101116.38;;;4.31;98.96
77090;BME280;66028;53.558;9.950;2024-02-14T04:34:17;101114.25;;;4.27;99.04
77090;BME280;66028;53.558;9.950;2024-02-14T04:36:44;101104.16;;;4.29;98.98
77090;BME280;66028;53.558;9.950;2024-02-14T04:39:10;101102.31;;;4.29;99.68
77090;BME280;66028;53.558;9.950;2024-02-14T04:41:35;101105.19;;;4.28;99.27
77090;BME280;66028;53.558;9.950;2024-02-14T04:44:04;101106.06;;;4.35;99.12
77090;BME280;66028;53.558;9.950;2024-02-14T04:46:32;101102.50;;;4.28;99.24
77090;BME280;66028;53.558;9.950;2024-02-14T04:48:57;101100.28;;;4.31;99.29
77090;BME280;66028;53.558;9.950;2024-02-14T04:51:22;101094.72;;;4.33;99.49
77090;BME280;66028;53.558;9.950;2024-02-14T04:53:48;101090.41;;;4.32;99.64
77090;BME280;66028;53.558;9.950;2024-02-14T04:56:13;101089.97;;;4.35;99.42
77090;BME280;66028;53.558;9.950;2024-02-14T04:58:38;101083.38;;;4.31;99.82
77090;BME280;66028;53.558;9.950;2024-02-14T05:01:04;101089.81;;;4.37;99.72
77090;BME280;66028;53.558;9.950;2024-02-14T05:03:29;101086.09;;;4.38;99.62
77090;BME280;66028;53.558;9.950;2024-02-14T05:05:54;101081.75;;;4.37;99.72
77090;BME280;66028;53.558;9.950;2024-02-14T05:08:19;101083.03;;;4.41;99.63
77090;BME280;66028;53.558;9.950;2024-02-14T05:10:45;101085.09;;;4.39;99.80
77090;BME280;66028;53.558;9.950;2024-02-14T05:13:11;101081.56;;;4.38;100.00
77090;BME280;66028;53.558;9.950;2024-02-14T05:15:36;101075.00;;;4.41;99.85
77090;BME280;66028;53.558;9.950;2024-02-14T05:18:03;101077.50;;;4.42;100.00
77090;BME280;66028;53.558;9.950;2024-02-14T05:20:28;101078.56;;;4.48;100.00
77090;BME280;66028;53.558;9.950;2024-02-14T05:22:53;101073.59;;;4.45;100.00
77090;BME280;66028;53.558;9.950;2024-02-14T05:25:19;101079.16;;;4.43;100.00
77090;BME280;66028;53.558;9.950;2024-02-14T05:27:44;101075.88;;;4.48;100.00
77090;BME280;66028;53.558;9.950;2024-02-14T05:30:12;101073.84;;;4.50;100.00
77090;BME280;66028;53.558;9.950;2024-02-14T05:32:37;101077.34;;;4.50;100.00
77090;BME280;66028;53.558;9.950;2024-02-14T05:35:04;101082.72;;;4.50;100.00
77090;BME280;66028;53.558;9.950;2024-02-14T05:37:31;101070.97;;;4.51;100.00
77090;BME280;66028;53.558;9.950;2024-02-14T05:39:56;101068.28;;;4.51;100.00
77090;BME280;66028;53.558;9.950;2024-02-14T05:42:22;101071.22;;;4.56;100.00
77090;BME280;66028;53.558;9.950;2024-02-14T05:44:48;101069.38;;;4.57;100.00
77090;BME280;66028;53.558;9.950;2024-02-14T05:47:13;101070.25;;;4.64;100.00
77090;BME280;66028;53.558;9.950;2024-02-14T05:49:39;101069.63;;;4.62;100.00
77090;BME280;66028;53.558;9.950;2024-02-14T05:52:08;101060.81;;;4.68;100.00
77090;BME280;66028;53.558;9.950;2024-02-14T05:54:34;101057.50;;;4.66;100.00
77090;BME280;66028;53.558;9.950;2024-02-14T05:57:00;101058.31;;;4.66;100.00
77090;BME280;66028;53.558;9.950;2024-02-14T05:59:27;101064.56;;;4.74;100.00
77090;BME280;66028;53.558;9.950;2024-02-14T06:01:52;101061.88;;;4.74;100.00
77090;BME280;66028;53.558;9.950;2024-02-14T06:04:18;101061.50;;;4.77;100.00
77090;BME280;66028;53.558;9.950;2024-02-14T06:06:43;101057.78;;;4.78;100.00
77090;BME280;66028;53.558;9.950;2024-02-14T06:09:09;101057.00;;;4.84;100.00
77090;BME280;66028;53.558;9.950;2024-02-14T06:11:36;101050.59;;;4.85;100.00
77090;BME280;66028;53.558;9.950;2024-02-14T06:14:07;101043.81;;;4.82;100.00
77090;BME280;66028;53.558;9.950;2024-02-14T06:16:33;101045.44;;;4.83;100.00
77090;BME280;66028;53.558;9.950;2024-02-14T06:18:58;101045.44;;;4.83;100.00
77090;BME280;66028;53.558;9.950;2024-02-14T06:21:23;101043.19;;;4.87;100.00
77090;BME280;66028;53.558;9.950;2024-02-14T06:23:49;101043.84;;;4.89;100.00
77090;BME280;66028;53.558;9.950;2024-02-14T06:26:14;101033.94;;;4.89;100.00
77090;BME280;66028;53.558;9.950;2024-02-14T06:28:39;101033.94;;;4.89;100.00
77090;BME280;66028;53.558;9.950;2024-02-14T06:31:05;101043.25;;;4.93;100.00
77090;BME280;66028;53.558;9.950;2024-02-14T06:33:30;101045.09;;;4.93;100.00
77090;BME280;66028;53.558;9.950;2024-02-14T06:35:55;101041.81;;;4.97;100.00
77090;BME280;66028;53.558;9.950;2024-02-14T06:38:20;101047.38;;;4.96;100.00
77090;BME280;66028;53.558;9.950;2024-02-14T06:40:46;101044.69;;;4.96;100.00
77090;BME280;66028;53.558;9.950;2024-02-14T06:43:11;101043.06;;;4.95;100.00
77090;BME280;66028;53.558;9.950;2024-02-14T06:45:37;101047.81;;;4.99;100.00
77090;BME280;66028;53.558;9.950;2024-02-14T06:48:03;101042.47;;;4.99;100.00
77090;BME280;66028;53.558;9.950;2024-02-14T06:50:28;101041.88;;;5.04;100.00
77090;BME280;66028;53.558;9.950;2024-02-14T06:52:54;101053.00;;;5.01;100.00
77090;BME280;66028;53.558;9.950;2024-02-14T06:55:23;101052.41;;;5.05;100.00
77090;BME280;66028;53.558;9.950;2024-02-14T06:57:48;101052.72;;;5.24;100.00
77090;BME280;66028;53.558;9.950;2024-02-14T07:00:14;101057.44;;;5.15;100.00
77090;BME280;66028;53.558;9.950;2024-02-14T07:02:39;101044.66;;;5.17;100.00
77090;BME280;66028;53.558;9.950;2024-02-14T07:05:04;101050.44;;;5.21;100.00
77090;BME280;66028;53.558;9.950;2024-02-14T07:07:32;101044.84;;;5.16;100.00
77090;BME280;66028;53.558;9.950;2024-02-14T07:09:57;101044.59;;;5.11;100.00
77090;BME280;66028;53.558;9.950;2024-02-14T07:12:22;101048.75;;;5.13;100.00
77090;BME280;66028;53.558;9.950;2024-02-14T07:14:48;101045.84;;;5.15;100.00
77090;BME280;66028;53.558;9.950;2024-02-14T07:17:14;101048.34;;;5.16;100.00
77090;BME280;66028;53.558;9.950;2024-02-14T07:19:39;101051.03;;;5.16;100.00
77090;BME280;66028;53.558;9.950;2024-02-14T07:22:04;101053.91;;;5.15;100.00
77090;BME280;66028;53.558;9.950;2024-02-14T07:24:29;101046.31;;;5.18;100.00
77090;BME280;66028;53.558;9.950;2024-02-14T07:26:54;101050.44;;;5.21;100.00
77090;BME280;66028;53.558;9.950;2024-02-14T07:29:20;101046.31;;;5.25;100.00
77090;BME280;66028;53.558;9.950;2024-02-14T07:31:45;101044.47;;;5.25;100.00
77090;BME280;66028;53.558;9.950;2024-02-14T07:34:10;101051.31;;;5.28;100.00
77090;BME280;66028;53.558;9.950;2024-02-14T07:36:36;101043.91;;;5.30;100.00
77090;BME280;66028;53.558;9.950;2024-02-14T07:39:02;101046.56;;;5.30;100.00
77090;BME280;66028;53.558;9.950;2024-02-14T07:41:27;101050.69;;;5.32;100.00
77090;BME280;66028;53.558;9.950;2024-02-14T07:43:52;101044.50;;;5.32;100.00
77090;BME280;66028;53.558;9.950;2024-02-14T07:46:19;101043.25;;;5.28;100.00
77090;BME280;66028;53.558;9.950;2024-02-14T07:48:44;101046.78;;;5.35;100.00
77090;BME280;66028;53.558;9.950;2024-02-14T07:51:10;101040.59;;;5.34;100.00
77090;BME280;66028;53.558;9.950;2024-02-14T07:53:36;101045.56;;;5.37;100.00
77090;BME280;66028;53.558;9.950;2024-02-14T07:56:01;101044.16;;;5.41;100.00
77090;BME280;66028;53.558;9.950;2024-02-14T07:58:26;101038.16;;;5.46;100.00
77090;BME280;66028;53.558;9.950;2024-02-14T08:00:51;101043.34;;;5.48;100.00
77090;BME280;66028;53.558;9.950;2024-02-14T08:03:17;101036.75;;;5.50;100.00
77090;BME280;66028;53.558;9.950;2024-02-14T08:05:42;101042.38;;;5.55;100.00
77090;BME280;66028;53.558;9.950;2024-02-14T08:08:07;101033.47;;;5.55;100.00
77090;BME280;66028;53.558;9.950;2024-02-14T08:10:33;101033.69;;;5.60;100.00
77090;BME280;66028;53.558;9.950;2024-02-14T08:12:58;101034.13;;;5.63;100.00
77090;BME280;66028;53.558;9.950;2024-02-14T08:15:24;101033.28;;;5.63;100.00
77090;BME280;66028;53.558;9.950;2024-02-14T08:17:49;101033.28;;;5.63;100.00
77090;BME280;66028;53.558;9.950;2024-02-14T08:20:14;101038.88;;;5.68;100.00
77090;BME280;66028;53.558;9.950;2024-02-14T08:22:39;101039.94;;;5.67;100.00
77090;BME280;66028;53.558;9.950;2024-02-14T08:25:05;101034.13;;;5.70;100.00
77090;BME280;66028;53.558;9.950;2024-02-14T08:27:30;101037.84;;;5.69;100.00
77090;BME280;66028;53.558;9.950;2024-02-14T08:29:56;101047.59;;;5.76;100.00
77090;BME280;66028;53.558;9.950;2024-02-14T08:32:21;101038.31;;;5.79;100.00
77090;BME280;66028;53.558;9.950;2024-02-14T08:34:47;101032.06;;;5.72;100.00
77090;BME280;66028;53.558;9.950;2024-02-14T08:37:12;101042.63;;;5.80;100.00
77090;BME280;66028;53.558;9.950;2024-02-14T08:39:38;101035.47;;;5.94;100.00
77090;BME280;66028;53.558;9.950;2024-02-14T08:42:03;101038.81;;;6.02;100.00
77090;BME280;66028;53.558;9.950;2024-02-14T08:44:33;101037.56;;;5.98;100.00
77090;BME280;66028;53.558;9.950;2024-02-14T08:46:58;101040.84;;;5.94;100.00
77090;BME280;66028;53.558;9.950;2024-02-14T08:49:23;101038.38;;;5.92;100.00
77090;BME280;66028;53.558;9.950;2024-02-14T08:51:49;101036.75;;;5.98;100.00
77090;BME280;66028;53.558;9.950;2024-02-14T08:54:15;101046.22;;;5.94;100.00
77090;BME280;66028;53.558;9.950;2024-02-14T08:56:41;101046.06;;;6.02;100.00
77090;BME280;66028;53.558;9.950;2024-02-14T08:59:06;101046.91;;;6.02;100.00
77090;BME280;66028;53.558;9.950;2024-02-14T09:01:32;101044.84;;;6.11;100.00
77090;BME280;66028;53.558;9.950;2024-02-14T09:03:57;101046.06;;;6.08;100.00
77090;BME280;66028;53.558;9.950;2024-02-14T09:06:24;101044.03;;;6.24;100.00
77090;BME280;66028;53.558;9.950;2024-02-14T09:08:50;101045.69;;;6.25;100.00
77090;BME280;66028;53.558;9.950;2024-02-14T09:11:21;101035.97;;;6.43;100.00
77090;BME280;66028;53.558;9.950;2024-02-14T09:13:47;101049.66;;;6.48;100.00
77090;BME280;66028;53.558;9.950;2024-02-14T09:16:14;101039.72;;;6.49;100.00
77090;BME280;66028;53.558;9.950;2024-02-14T09:18:40;101044.91;;;6.64;100.00
77090;BME280;66028;53.558;9.950;2024-02-14T09:21:06;101042.59;;;6.67;100.00
77090;BME280;66028;53.558;9.950;2024-02-14T09:23:31;101039.28;;;6.72;100.00
77090;BME280;66028;53.558;9.950;2024-02-14T09:25:57;101045.88;;;6.89;100.00
77090;BME280;66028;53.558;9.950;2024-02-14T09:28:22;101041.34;;;6.90;100.00
77090;BME280;66028;53.558;9.950;2024-02-14T09:30:48;101049.59;;;7.01;100.00
77090;BME280;66028;53.558;9.950;2024-02-14T09:33:13;101047.72;;;7.21;100.00
77090;BME280;66028;53.558;9.950;2024-02-14T09:35:38;101045.66;;;7.23;100.00
77090;BME280;66028;53.558;9.950;2024-02-14T09:38:09;101046.03;;;7.27;100.00
77090;BME280;66028;53.558;9.950;2024-02-14T09:40:36;101050.59;;;7.33;100.00
77090;BME280;66028;53.558;9.950;2024-02-14T09:43:01;101044.38;;;7.33;100.00
77090;BME280;66028;53.558;9.950;2024-02-14T09:45:30;101056.56;;;7.48;100.00
77090;BME280;66028;53.558;9.950;2024-02-14T09:47:57;101049.09;;;7.44;100.00
77090;BME280;66028;53.558;9.950;2024-02-14T09:50:22;101040.97;;;7.57;100.00
77090;BME280;66028;53.558;9.950;2024-02-14T09:52:49;101045.13;;;7.53;100.00
77090;BME280;66028;53.558;9.950;2024-02-14T09:55:15;101053.34;;;7.71;100.00
77090;BME280;66028;53.558;9.950;2024-02-14T09:57:41;101043.16;;;7.73;100.00
77090;BME280;66028;53.558;9.950;2024-02-14T10:00:11;101039.25;;;7.69;100.00
77090;BME280;66028;53.558;9.950;2024-02-14T10:02:40;101048.13;;;7.76;100.00
77090;BME280;66028;53.558;9.950;2024-02-14T10:05:05;101046.88;;;7.79;100.00
77090;BME280;66028;53.558;9.950;2024-02-14T10:07:39;101056.00;;;7.78;100.00
77090;BME280;66028;53.558;9.950;2024-02-14T10:10:08;101053.47;;;7.89;100.00
77090;BME280;66028;53.558;9.950;2024-02-14T10:12:33;101056.97;;;7.97;100.00
77090;BME280;66028;53.558;9.950;2024-02-14T10:14:58;101051.53;;;8.03;100.00
77090;BME280;66028;53.558;9.950;2024-02-14T10:17:24;101054.63;;;8.07;100.00
77090;BME280;66028;53.558;9.950;2024-02-14T10:19:56;101060.66;;;8.02;100.00
77090;BME280;66028;53.558;9.950;2024-02-14T10:22:21;101063.34;;;8.02;100.00
77090;BME280;66028;53.558;9.950;2024-02-14T10:24:46;101063.91;;;8.11;100.00
77090;BME280;66028;53.558;9.950;2024-02-14T10:27:12;101070.75;;;8.13;100.00
77090;BME280;66028;53.558;9.950;2024-02-14T10:29:37;101070.34;;;8.10;100.00
77090;BME280;66028;53.558;9.950;2024-02-14T10:32:03;101072.19;;;8.16;100.00
77090;BME280;66028;53.558;9.950;2024-02-14T10:34:29;101077.78;;;8.21;100.00
77090;BME280;66028;53.558;9.950;2024-02-14T10:36:56;101074.63;;;8.24;100.00
77090;BME280;66028;53.558;9.950;2024-02-14T10:39:25;101074.22;;;8.27;100.00
77090;BME280;66028;53.558;9.950;2024-02-14T10:41:51;101075.63;;;8.36;100.00
77090;BME280;66028;53.558;9.950;2024-02-14T10:44:16;101071.47;;;8.34;100.00
77090;BME280;66028;53.558;9.950;2024-02-14T10:46:44;101071.84;;;8.44;100.00
77090;BME280;66028;53.558;9.950;2024-02-14T10:49:10;101073.25;;;8.46;100.00
77090;BME280;66028;53.558;9.950;2024-02-14T10:51:38;101077.16;;;8.57;100.00
77090;BME280;66028;53.558;9.950;2024-02-14T10:54:10;101080.84;;;8.62;100.00
77090;BME280;66028;53.558;9.950;2024-02-14T10:56:41;101082.06;;;8.66;100.00
77090;BME280;66028;53.558;9.950;2024-02-14T10:59:11;101078.53;;;8.66;100.00
77090;BME280;66028;53.558;9.950;2024-02-14T11:01:39;101081.03;;;8.68;100.00
77090;BME280;66028;53.558;9.950;2024-02-14T11:04:05;101084.75;;;8.66;100.00
77090;BME280;66028;53.558;9.950;2024-02-14T11:06:30;101083.25;;;8.71;100.00
77090;BME280;66028;53.558;9.950;2024-02-14T11:09:02;101078.25;;;8.74;100.00
77090;BME280;66028;53.558;9.950;2024-02-14T11:11:35;101081.97;;;8.80;100.00
77090;BME280;66028;53.558;9.950;2024-02-14T11:14:02;101085.72;;;8.79;100.00
77090;BME280;66028;53.558;9.950;2024-02-14T11:16:30;101080.03;;;8.87;100.00
77090;BME280;66028;53.558;9.950;2024-02-14T11:19:11;101080.41;;;8.90;100.00
77090;BME280;66028;53.558;9.950;2024-02-14T11:21:40;101076.50;;;8.86;100.00
77090;BME280;66028;53.558;9.950;2024-02-14T11:24:09;101083.66;;;8.99;100.00
77090;BME280;66028;53.558;9.950;2024-02-14T11:26:50;101077.84;;;8.95;100.00
77090;BME280;66028;53.558;9.950;2024-02-14T11:29:20;101087.56;;;9.03;100.00
77090;BME280;66028;53.558;9.950;2024-02-14T11:31:45;101082.81;;;8.98;100.00
77090;BME280;66028;53.558;9.950;2024-02-14T11:34:12;101088.19;;;9.05;100.00
77090;BME280;66028;53.558;9.950;2024-02-14T11:36:39;101092.47;;;9.13;100.00
77090;BME280;66028;53.558;9.950;2024-02-14T11:39:06;101089.38;;;9.09;100.00
77090;BME280;66028;53.558;9.950;2024-02-14T11:41:35;101090.28;;;9.21;100.00
77090;BME280;66028;53.558;9.950;2024-02-14T11:44:02;101092.78;;;9.23;100.00
77090;BME280;66028;53.558;9.950;2024-02-14T11:46:30;101105.47;;;9.22;100.00
77090;BME280;66028;53.558;9.950;2024-02-14T11:48:55;101100.28;;;9.21;100.00
77090;BME280;66028;53.558;9.950;2024-02-14T11:51:22;101104.63;;;9.22;100.00
77090;BME280;66028;53.558;9.950;2024-02-14T11:53:47;101097.22;;;9.35;100.00
77090;BME280;66028;53.558;9.950;2024-02-14T11:56:14;101102.47;;;9.30;100.00
77090;BME280;66028;53.558;9.950;2024-02-14T11:58:39;101099.31;;;9.33;100.00
77090;BME280;66028;53.558;9.950;2024-02-14T12:01:05;101101.59;;;9.36;100.00
77090;BME280;66028;53.558;9.950;2024-02-14T12:03:30;101099.50;;;9.38;100.00
77090;BME280;66028;53.558;9.950;2024-02-14T12:05:56;101094.34;;;9.30;100.00
77090;BME280;66028;53.558;9.950;2024-02-14T12:08:22;101101.75;;;9.42;100.00
77090;BME280;66028;53.558;9.950;2024-02-14T12:10:48;101103.09;;;9.51;100.00
77090;BME280;66028;53.558;9.950;2024-02-14T12:13:16;101099.13;;;9.53;100.00
77090;BME280;66028;53.558;9.950;2024-02-14T12:15:44;101096.03;;;9.50;100.00
77090;BME280;66028;53.558;9.950;2024-02-14T12:18:10;101106.84;;;9.50;100.00
77090;BME280;66028;53.558;9.950;2024-02-14T12:20:37;101110.47;;;9.62;100.00
77090;BME280;66028;53.558;9.950;2024-02-14T12:23:02;101107.53;;;9.63;100.00
77090;BME280;66028;53.558;9.950;2024-02-14T12:25:28;101109.53;;;9.68;100.00
77090;BME280;66028;53.558;9.950;2024-02-14T12:27:56;101117.88;;;9.66;100.00
77090;BME280;66028;53.558;9.950;2024-02-14T12:30:22;101114.66;;;9.76;100.00
77090;BME280;66028;53.558;9.950;2024-02-14T12:33:00;101112.53;;;9.78;100.00
77090;BME280;66028;53.558;9.950;2024-02-14T12:35:34;101116.75;;;9.74;100.00
77090;BME280;66028;53.558;9.950;2024-02-14T12:38:00;101121.63;;;9.84;100.00
77090;BME280;66028;53.558;9.950;2024-02-14T12:40:26;101116.69;;;9.81;100.00
77090;BME280;66028;53.558;9.950;2024-02-14T12:42:51;101114.97;;;9.86;100.00
77090;BME280;66028;53.558;9.950;2024-02-14T12:45:16;101125.34;;;9.89;100.00
77090;BME280;66028;53.558;9.950;2024-02-14T12:47:42;101126.44;;;9.82;100.00
77090;BME280;66028;53.558;9.950;2024-02-14T12:50:08;101123.97;;;9.80;100.00